sensor_id;sensor_type;location;lat;lon;timestamp;P1;durP1;ratioP1;P2;durP2;ratioP2
75616;SDS011;64200;55.426;37.758;2023-09-19T00:00:58;15.90;;;9.80;;
75616;SDS011;64200;55.426;37.758;2023-09-19T00:05:58;13.30;;;8.80;;
75616;SDS011;64200;55.426;37.758;2023-09-19T00:11:00;14.65;;;8.75;;
75616;SDS011;64200;55.426;37.758;2023-09-19T00:16:09;13.98;;;10.23;;
75616;SDS011;64200;55.426;37.758;2023-09-19T00:21:14;14.20;;;10.40;;
75616;SDS011;64200;55.426;37.758;2023-09-19T00:26:15;13.68;;;8.88;;
75616;SDS011;64200;55.426;37.758;2023-09-19T00:31:17;14.10;;;9.68;;
75616;SDS011;64200;55.426;37.758;2023-09-19T00:36:18;16.10;;;8.33;;
75616;SDS011;64200;55.426;37.758;2023-09-19T00:41:19;13.95;;;9.02;;
75616;SDS011;64200;55.426;37.758;2023-09-19T00:46:19;12.97;;;8.63;;
75616;SDS011;64200;55.426;37.758;2023-09-19T00:51:20;16.70;;;9.50;;
75616;SDS011;64200;55.426;37.758;2023-09-19T00:56:22;15.27;;;9.05;;
75616;SDS011;64200;55.426;37.758;2023-09-19T01:01:23;14.52;;;9.38;;
75616;SDS011;64200;55.426;37.758;2023-09-19T01:06:25;12.30;;;8.70;;
75616;SDS011;64200;55.426;37.758;2023-09-19T01:27:58;17.15;;;9.48;;
75616;SDS011;64200;55.426;37.758;2023-09-19T01:32:51;19.58;;;12.75;;
75616;SDS011;64200;55.426;37.758;2023-09-19T01:37:54;20.45;;;11.75;;
75616;SDS011;64200;55.426;37.758;2023-09-19T01:42:57;21.13;;;12.25;;
75616;SDS011;64200;55.426;37.758;2023-09-19T01:58:57;25.55;;;13.07;;
75616;SDS011;64200;55.426;37.758;2023-09-19T02:04:04;26.77;;;13.32;;
75616;SDS011;64200;55.426;37.758;2023-09-19T02:09:04;28.10;;;11.35;;
75616;SDS011;64200;55.426;37.758;2023-09-19T02:14:05;42.78;;;12.70;;
75616;SDS011;64200;55.426;37.758;2023-09-19T02:19:08;58.60;;;12.13;;
75616;SDS011;64200;55.426;37.758;2023-09-19T02:24:09;30.57;;;7.80;;
75616;SDS011;64200;55.426;37.758;2023-09-19T02:29:10;46.50;;;9.90;;
75616;SDS011;64200;55.426;37.758;2023-09-19T02:34:12;54.70;;;9.57;;
75616;SDS011;64200;55.426;37.758;2023-09-19T02:39:16;63.03;;;9.48;;
75616;SDS011;64200;55.426;37.758;2023-09-19T02:44:17;43.97;;;9.53;;
75616;SDS011;64200;55.426;37.758;2023-09-19T02:49:17;34.17;;;10.00;;
75616;SDS011;64200;55.426;37.758;2023-09-19T02:54:18;29.27;;;7.32;;
75616;SDS011;64200;55.426;37.758;2023-09-19T02:59:19;35.05;;;10.20;;
75616;SDS011;64200;55.426;37.758;2023-09-19T03:04:19;22.25;;;9.98;;
75616;SDS011;64200;55.426;37.758;2023-09-19T03:09:20;19.35;;;9.45;;
75616;SDS011;64200;55.426;37.758;2023-09-19T03:14:20;20.83;;;9.83;;
75616;SDS011;64200;55.426;37.758;2023-09-19T03:19:22;20.65;;;8.75;;
75616;SDS011;64200;55.426;37.758;2023-09-19T03:24:23;16.20;;;9.57;;
75616;SDS011;64200;55.426;37.758;2023-09-19T03:29:24;19.45;;;9.45;;
75616;SDS011;64200;55.426;37.758;2023-09-19T03:34:25;19.35;;;10.30;;
75616;SDS011;64200;55.426;37.758;2023-09-19T03:39:26;19.17;;;11.15;;
75616;SDS011;64200;55.426;37.758;2023-09-19T03:44:26;20.55;;;9.77;;
75616;SDS011;64200;55.426;37.758;2023-09-19T03:49:27;17.93;;;10.40;;
75616;SDS011;64200;55.426;37.758;2023-09-19T03:54:27;20.83;;;12.20;;
75616;SDS011;64200;55.426;37.758;2023-09-19T03:59:28;21.33;;;11.53;;
75616;SDS011;64200;55.426;37.758;2023-09-19T04:04:29;21.83;;;12.68;;
75616;SDS011;64200;55.426;37.758;2023-09-19T04:09:29;21.63;;;13.20;;
75616;SDS011;64200;55.426;37.758;2023-09-19T04:14:30;19.30;;;11.47;;
75616;SDS011;64200;55.426;37.758;2023-09-19T04:19:31;23.47;;;13.23;;
75616;SDS011;64200;55.426;37.758;2023-09-19T04:24:31;17.15;;;11.23;;
75616;SDS011;64200;55.426;37.758;2023-09-19T04:29:33;20.05;;;12.13;;
75616;SDS011;64200;55.426;37.758;2023-09-19T04:34:33;16.73;;;11.18;;
75616;SDS011;64200;55.426;37.758;2023-09-19T04:39:34;20.27;;;11.40;;
75616;SDS011;64200;55.426;37.758;2023-09-19T04:44:35;16.43;;;10.07;;
75616;SDS011;64200;55.426;37.758;2023-09-19T04:49:36;18.48;;;10.38;;
75616;SDS011;64200;55.426;37.758;2023-09-19T04:54:37;18.35;;;10.55;;
75616;SDS011;64200;55.426;37.758;2023-09-19T04:59:38;17.40;;;10.73;;
75616;SDS011;64200;55.426;37.758;2023-09-19T05:04:41;15.05;;;8.82;;
75616;SDS011;64200;55.426;37.758;2023-09-19T05:09:41;17.13;;;9.90;;
75616;SDS011;64200;55.426;37.758;2023-09-19T05:14:42;17.00;;;10.98;;
75616;SDS011;64200;55.426;37.758;2023-09-19T05:19:43;14.50;;;8.20;;
75616;SDS011;64200;55.426;37.758;2023-09-19T05:24:43;13.90;;;9.20;;
75616;SDS011;64200;55.426;37.758;2023-09-19T05:29:48;14.10;;;9.93;;
75616;SDS011;64200;55.426;37.758;2023-09-19T05:34:50;16.88;;;10.40;;
75616;SDS011;64200;55.426;37.758;2023-09-19T05:39:56;11.63;;;7.32;;
75616;SDS011;64200;55.426;37.758;2023-09-19T05:44:57;11.77;;;6.03;;
75616;SDS011;64200;55.426;37.758;2023-09-19T05:49:58;15.35;;;9.18;;
75616;SDS011;64200;55.426;37.758;2023-09-19T05:54:59;12.15;;;6.25;;
75616;SDS011;64200;55.426;37.758;2023-09-19T06:00:00;12.27;;;7.50;;
75616;SDS011;64200;55.426;37.758;2023-09-19T06:05:01;15.57;;;9.32;;
75616;SDS011;64200;55.426;37.758;2023-09-19T06:10:02;15.77;;;8.93;;
75616;SDS011;64200;55.426;37.758;2023-09-19T06:15:05;11.45;;;6.88;;
75616;SDS011;64200;55.426;37.758;2023-09-19T06:20:08;14.77;;;9.40;;
75616;SDS011;64200;55.426;37.758;2023-09-19T06:25:15;13.55;;;8.90;;
75616;SDS011;64200;55.426;37.758;2023-09-19T06:30:19;16.65;;;9.50;;
75616;SDS011;64200;55.426;37.758;2023-09-19T06:35:21;15.10;;;8.55;;
75616;SDS011;64200;55.426;37.758;2023-09-19T06:40:22;16.27;;;9.57;;
75616;SDS011;64200;55.426;37.758;2023-09-19T06:45:23;17.40;;;10.90;;
75616;SDS011;64200;55.426;37.758;2023-09-19T06:50:26;17.75;;;10.73;;
75616;SDS011;64200;55.426;37.758;2023-09-19T06:55:27;18.75;;;9.93;;
75616;SDS011;64200;55.426;37.758;2023-09-19T07:00:31;12.82;;;8.00;;
75616;SDS011;64200;55.426;37.758;2023-09-19T07:05:36;13.80;;;8.13;;
75616;SDS011;64200;55.426;37.758;2023-09-19T07:10:39;14.32;;;8.30;;
75616;SDS011;64200;55.426;37.758;2023-09-19T07:15:49;13.77;;;9.23;;
75616;SDS011;64200;55.426;37.758;2023-09-19T07:20:50;16.10;;;9.73;;
75616;SDS011;64200;55.426;37.758;2023-09-19T07:25:50;15.10;;;10.18;;
75616;SDS011;64200;55.426;37.758;2023-09-19T07:30:51;16.63;;;10.75;;
75616;SDS011;64200;55.426;37.758;2023-09-19T07:35:52;15.13;;;10.02;;
75616;SDS011;64200;55.426;37.758;2023-09-19T07:40:53;13.37;;;9.27;;
75616;SDS011;64200;55.426;37.758;2023-09-19T07:46:03;16.25;;;10.48;;
75616;SDS011;64200;55.426;37.758;2023-09-19T07:51:07;15.05;;;9.85;;
75616;SDS011;64200;55.426;37.758;2023-09-19T07:56:09;16.25;;;9.40;;
75616;SDS011;64200;55.426;37.758;2023-09-19T08:01:10;16.33;;;9.93;;
75616;SDS011;64200;55.426;37.758;2023-09-19T08:06:10;16.05;;;10.40;;
75616;SDS011;64200;55.426;37.758;2023-09-19T08:11:11;12.73;;;9.30;;
75616;SDS011;64200;55.426;37.758;2023-09-19T08:16:13;16.92;;;11.05;;
75616;SDS011;64200;55.426;37.758;2023-09-19T08:21:15;13.95;;;10.05;;
75616;SDS011;64200;55.426;37.758;2023-09-19T08:26:15;12.98;;;9.77;;
75616;SDS011;64200;55.426;37.758;2023-09-19T08:31:17;13.65;;;8.95;;
75616;SDS011;64200;55.426;37.758;2023-09-19T08:36:17;13.32;;;9.40;;
75616;SDS011;64200;55.426;37.758;2023-09-19T08:41:18;16.48;;;10.77;;
75616;SDS011;64200;55.426;37.758;2023-09-19T08:46:18;15.23;;;10.90;;
75616;SDS011;64200;55.426;37.758;2023-09-19T08:51:42;12.18;;;9.05;;
75616;SDS011;64200;55.426;37.758;2023-09-19T08:56:46;14.65;;;9.73;;
75616;SDS011;64200;55.426;37.758;2023-09-19T09:01:47;12.15;;;9.27;;
75616;SDS011;64200;55.426;37.758;2023-09-19T09:06:51;14.57;;;10.80;;
75616;SDS011;64200;55.426;37.758;2023-09-19T09:11:54;12.63;;;10.73;;
75616;SDS011;64200;55.426;37.758;2023-09-19T09:16:56;12.68;;;10.82;;
75616;SDS011;64200;55.426;37.758;2023-09-19T09:22:06;15.15;;;10.40;;
75616;SDS011;64200;55.426;37.758;2023-09-19T09:27:07;14.75;;;10.98;;
75616;SDS011;64200;55.426;37.758;2023-09-19T09:37:29;11.63;;;10.43;;
75616;SDS011;64200;55.426;37.758;2023-09-19T09:42:34;13.38;;;10.57;;
75616;SDS011;64200;55.426;37.758;2023-09-19T09:47:45;14.73;;;11.23;;
75616;SDS011;64200;55.426;37.758;2023-09-19T09:52:54;14.73;;;11.10;;
75616;SDS011;64200;55.426;37.758;2023-09-19T09:58:15;13.45;;;10.90;;
75616;SDS011;64200;55.426;37.758;2023-09-19T10:03:21;13.15;;;10.70;;
75616;SDS011;64200;55.426;37.758;2023-09-19T10:08:22;15.63;;;10.93;;
75616;SDS011;64200;55.426;37.758;2023-09-19T10:13:23;13.88;;;10.05;;
75616;SDS011;64200;55.426;37.758;2023-09-19T10:18:27;12.48;;;9.68;;
75616;SDS011;64200;55.426;37.758;2023-09-19T10:28:34;10.35;;;9.20;;
75616;SDS011;64200;55.426;37.758;2023-09-19T10:33:36;11.45;;;9.48;;
75616;SDS011;64200;55.426;37.758;2023-09-19T10:38:37;12.00;;;10.70;;
75616;SDS011;64200;55.426;37.758;2023-09-19T10:43:43;17.15;;;10.80;;
75616;SDS011;64200;55.426;37.758;2023-09-19T10:48:48;10.48;;;9.32;;
75616;SDS011;64200;55.426;37.758;2023-09-19T10:53:54;12.60;;;9.95;;
75616;SDS011;64200;55.426;37.758;2023-09-19T10:59:08;11.07;;;8.88;;
75616;SDS011;64200;55.426;37.758;2023-09-19T11:09:35;10.73;;;7.82;;
75616;SDS011;64200;55.426;37.758;2023-09-19T11:14:58;9.63;;;7.30;;
75616;SDS011;64200;55.426;37.758;2023-09-19T11:30:48;9.88;;;7.85;;
75616;SDS011;64200;55.426;37.758;2023-09-19T11:46:28;9.23;;;6.90;;
75616;SDS011;64200;55.426;37.758;2023-09-19T11:51:36;9.52;;;7.40;;
75616;SDS011;64200;55.426;37.758;2023-09-19T11:56:43;9.65;;;7.50;;
75616;SDS011;64200;55.426;37.758;2023-09-19T12:01:50;9.13;;;7.10;;
75616;SDS011;64200;55.426;37.758;2023-09-19T12:06:57;7.65;;;6.50;;
75616;SDS011;64200;55.426;37.758;2023-09-19T12:11:58;7.97;;;7.15;;
75616;SDS011;64200;55.426;37.758;2023-09-19T12:16:59;13.43;;;8.25;;
75616;SDS011;64200;55.426;37.758;2023-09-19T12:22:02;7.82;;;7.05;;
75616;SDS011;64200;55.426;37.758;2023-09-19T12:27:06;7.50;;;6.80;;
75616;SDS011;64200;55.426;37.758;2023-09-19T12:32:07;7.53;;;6.57;;
75616;SDS011;64200;55.426;37.758;2023-09-19T12:37:09;10.30;;;7.00;;
75616;SDS011;64200;55.426;37.758;2023-09-19T12:42:11;10.55;;;6.93;;
75616;SDS011;64200;55.426;37.758;2023-09-19T12:47:16;9.75;;;7.75;;
75616;SDS011;64200;55.426;37.758;2023-09-19T12:52:20;8.80;;;7.63;;
75616;SDS011;64200;55.426;37.758;2023-09-19T12:57:24;15.43;;;8.13;;
75616;SDS011;64200;55.426;37.758;2023-09-19T13:02:26;9.48;;;7.68;;
75616;SDS011;64200;55.426;37.758;2023-09-19T13:07:41;8.65;;;7.68;;
75616;SDS011;64200;55.426;37.758;2023-09-19T13:17:47;12.00;;;7.53;;
75616;SDS011;64200;55.426;37.758;2023-09-19T13:22:55;12.63;;;7.72;;
75616;SDS011;64200;55.426;37.758;2023-09-19T13:28:06;14.25;;;9.43;;
75616;SDS011;64200;55.426;37.758;2023-09-19T13:33:10;11.35;;;9.43;;
75616;SDS011;64200;55.426;37.758;2023-09-19T13:38:11;13.07;;;9.75;;
75616;SDS011;64200;55.426;37.758;2023-09-19T13:43:12;14.73;;;9.98;;
75616;SDS011;64200;55.426;37.758;2023-09-19T13:48:13;13.65;;;9.18;;
75616;SDS011;64200;55.426;37.758;2023-09-19T13:53:14;16.02;;;8.60;;
75616;SDS011;64200;55.426;37.758;2023-09-19T13:58:14;12.02;;;8.25;;
75616;SDS011;64200;55.426;37.758;2023-09-19T14:03:15;12.65;;;9.60;;
75616;SDS011;64200;55.426;37.758;2023-09-19T14:08:16;12.80;;;9.55;;
75616;SDS011;64200;55.426;37.758;2023-09-19T14:13:16;14.45;;;9.43;;
75616;SDS011;64200;55.426;37.758;2023-09-19T14:18:17;11.77;;;8.30;;
75616;SDS011;64200;55.426;37.758;2023-09-19T14:23:18;13.05;;;9.18;;
75616;SDS011;64200;55.426;37.758;2023-09-19T14:28:19;15.00;;;9.30;;
75616;SDS011;64200;55.426;37.758;2023-09-19T14:33:19;11.93;;;8.73;;
75616;SDS011;64200;55.426;37.758;2023-09-19T14:38:20;11.83;;;7.87;;
75616;SDS011;64200;55.426;37.758;2023-09-19T14:43:20;10.05;;;6.85;;
75616;SDS011;64200;55.426;37.758;2023-09-19T14:48:21;11.63;;;8.20;;
75616;SDS011;64200;55.426;37.758;2023-09-19T14:53:25;12.20;;;7.07;;
75616;SDS011;64200;55.426;37.758;2023-09-19T14:58:26;10.48;;;7.32;;
75616;SDS011;64200;55.426;37.758;2023-09-19T15:03:30;14.55;;;7.15;;
75616;SDS011;64200;55.426;37.758;2023-09-19T15:08:34;10.18;;;5.97;;
75616;SDS011;64200;55.426;37.758;2023-09-19T15:13:35;11.02;;;6.50;;
75616;SDS011;64200;55.426;37.758;2023-09-19T15:18:37;10.20;;;5.60;;
75616;SDS011;64200;55.426;37.758;2023-09-19T15:23:39;9.88;;;5.97;;
75616;SDS011;64200;55.426;37.758;2023-09-19T15:28:40;7.47;;;5.70;;
75616;SDS011;64200;55.426;37.758;2023-09-19T15:33:41;19.33;;;11.85;;
75616;SDS011;64200;55.426;37.758;2023-09-19T15:43:57;14.30;;;9.45;;
75616;SDS011;64200;55.426;37.758;2023-09-19T15:49:02;11.27;;;7.45;;
75616;SDS011;64200;55.426;37.758;2023-09-19T15:54:06;9.57;;;6.95;;
75616;SDS011;64200;55.426;37.758;2023-09-19T15:59:09;12.00;;;8.68;;
75616;SDS011;64200;55.426;37.758;2023-09-19T16:04:14;13.00;;;8.95;;
75616;SDS011;64200;55.426;37.758;2023-09-19T16:09:17;15.23;;;9.18;;
75616;SDS011;64200;55.426;37.758;2023-09-19T16:14:17;17.88;;;9.45;;
75616;SDS011;64200;55.426;37.758;2023-09-19T16:19:18;12.88;;;9.45;;
75616;SDS011;64200;55.426;37.758;2023-09-19T16:24:19;12.98;;;8.02;;
75616;SDS011;64200;55.426;37.758;2023-09-19T16:29:20;13.68;;;8.93;;
75616;SDS011;64200;55.426;37.758;2023-09-19T16:34:24;16.27;;;9.45;;
75616;SDS011;64200;55.426;37.758;2023-09-19T16:39:25;12.15;;;8.55;;
75616;SDS011;64200;55.426;37.758;2023-09-19T16:44:26;12.02;;;7.95;;
75616;SDS011;64200;55.426;37.758;2023-09-19T16:49:29;11.13;;;7.38;;
75616;SDS011;64200;55.426;37.758;2023-09-19T16:54:30;11.20;;;8.32;;
75616;SDS011;64200;55.426;37.758;2023-09-19T16:59:31;11.88;;;8.80;;
75616;SDS011;64200;55.426;37.758;2023-09-19T17:04:31;10.40;;;6.77;;
75616;SDS011;64200;55.426;37.758;2023-09-19T17:09:32;10.07;;;7.10;;
75616;SDS011;64200;55.426;37.758;2023-09-19T17:14:35;13.02;;;7.90;;
75616;SDS011;64200;55.426;37.758;2023-09-19T17:19:36;14.40;;;7.32;;
75616;SDS011;64200;55.426;37.758;2023-09-19T17:24:37;9.98;;;6.47;;
75616;SDS011;64200;55.426;37.758;2023-09-19T17:29:37;8.03;;;6.17;;
75616;SDS011;64200;55.426;37.758;2023-09-19T17:34:38;8.18;;;6.38;;
75616;SDS011;64200;55.426;37.758;2023-09-19T17:39:38;11.85;;;6.55;;
75616;SDS011;64200;55.426;37.758;2023-09-19T17:44:39;8.63;;;6.03;;
75616;SDS011;64200;55.426;37.758;2023-09-19T17:49:39;10.55;;;6.68;;
75616;SDS011;64200;55.426;37.758;2023-09-19T17:54:43;10.98;;;7.30;;
75616;SDS011;64200;55.426;37.758;2023-09-19T17:59:49;13.75;;;7.00;;
75616;SDS011;64200;55.426;37.758;2023-09-19T18:04:49;10.45;;;7.00;;
75616;SDS011;64200;55.426;37.758;2023-09-19T18:09:52;12.38;;;6.93;;
75616;SDS011;64200;55.426;37.758;2023-09-19T18:14:53;7.68;;;6.22;;
75616;SDS011;64200;55.426;37.758;2023-09-19T18:19:54;9.70;;;6.55;;
75616;SDS011;64200;55.426;37.758;2023-09-19T18:24:54;11.68;;;6.60;;
75616;SDS011;64200;55.426;37.758;2023-09-19T18:29:55;11.63;;;6.97;;
75616;SDS011;64200;55.426;37.758;2023-09-19T18:34:56;9.65;;;7.10;;
75616;SDS011;64200;55.426;37.758;2023-09-19T18:39:57;11.57;;;7.97;;
75616;SDS011;64200;55.426;37.758;2023-09-19T18:44:57;10.50;;;5.72;;
75616;SDS011;64200;55.426;37.758;2023-09-19T18:49:58;10.45;;;6.93;;
75616;SDS011;64200;55.426;37.758;2023-09-19T18:54:58;8.80;;;5.82;;
75616;SDS011;64200;55.426;37.758;2023-09-19T18:59:59;14.30;;;7.35;;
75616;SDS011;64200;55.426;37.758;2023-09-19T19:05:00;8.43;;;5.72;;
75616;SDS011;64200;55.426;37.758;2023-09-19T19:10:04;10.38;;;5.95;;
75616;SDS011;64200;55.426;37.758;2023-09-19T19:15:06;11.25;;;7.13;;
75616;SDS011;64200;55.426;37.758;2023-09-19T19:20:07;9.50;;;5.65;;
75616;SDS011;64200;55.426;37.758;2023-09-19T19:25:10;10.60;;;5.53;;
75616;SDS011;64200;55.426;37.758;2023-09-19T19:30:10;8.48;;;6.80;;
75616;SDS011;64200;55.426;37.758;2023-09-19T19:35:11;9.40;;;6.45;;
75616;SDS011;64200;55.426;37.758;2023-09-19T19:40:13;9.40;;;6.30;;
75616;SDS011;64200;55.426;37.758;2023-09-19T19:45:13;8.40;;;5.65;;
75616;SDS011;64200;55.426;37.758;2023-09-19T19:50:14;8.65;;;5.93;;
75616;SDS011;64200;55.426;37.758;2023-09-19T19:55:16;9.20;;;6.30;;
75616;SDS011;64200;55.426;37.758;2023-09-19T20:00:16;6.95;;;5.72;;
75616;SDS011;64200;55.426;37.758;2023-09-19T20:05:20;7.35;;;5.45;;
75616;SDS011;64200;55.426;37.758;2023-09-19T20:10:20;9.88;;;6.05;;
75616;SDS011;64200;55.426;37.758;2023-09-19T20:15:22;8.88;;;5.90;;
75616;SDS011;64200;55.426;37.758;2023-09-19T20:20:25;6.85;;;5.97;;
75616;SDS011;64200;55.426;37.758;2023-09-19T20:25:27;10.18;;;6.47;;
75616;SDS011;64200;55.426;37.758;2023-09-19T20:30:28;12.43;;;6.47;;
75616;SDS011;64200;55.426;37.758;2023-09-19T20:35:29;9.52;;;5.78;;
75616;SDS011;64200;55.426;37.758;2023-09-19T20:40:29;7.07;;;5.75;;
75616;SDS011;64200;55.426;37.758;2023-09-19T20:45:30;8.07;;;5.35;;
75616;SDS011;64200;55.426;37.758;2023-09-19T20:50:33;8.52;;;5.57;;
75616;SDS011;64200;55.426;37.758;2023-09-19T20:55:34;9.10;;;5.75;;
75616;SDS011;64200;55.426;37.758;2023-09-19T21:00:39;6.53;;;4.75;;
75616;SDS011;64200;55.426;37.758;2023-09-19T21:05:42;9.57;;;5.97;;
75616;SDS011;64200;55.426;37.758;2023-09-19T21:10:42;9.50;;;6.40;;
75616;SDS011;64200;55.426;37.758;2023-09-19T21:15:43;8.73;;;5.85;;
75616;SDS011;64200;55.426;37.758;2023-09-19T21:20:43;8.80;;;5.97;;
75616;SDS011;64200;55.426;37.758;2023-09-19T21:25:53;10.60;;;5.47;;
75616;SDS011;64200;55.426;37.758;2023-09-19T21:35:59;9.88;;;5.20;;
75616;SDS011;64200;55.426;37.758;2023-09-19T21:46:08;8.75;;;6.15;;
75616;SDS011;64200;55.426;37.758;2023-09-19T21:51:09;10.45;;;5.55;;
75616;SDS011;64200;55.426;37.758;2023-09-19T21:56:10;9.37;;;5.50;;
75616;SDS011;64200;55.426;37.758;2023-09-19T22:01:12;8.90;;;5.90;;
75616;SDS011;64200;55.426;37.758;2023-09-19T22:06:13;8.35;;;4.32;;
75616;SDS011;64200;55.426;37.758;2023-09-19T22:11:13;12.00;;;6.53;;
75616;SDS011;64200;55.426;37.758;2023-09-19T22:16:15;9.43;;;5.50;;
75616;SDS011;64200;55.426;37.758;2023-09-19T22:21:17;9.35;;;5.20;;
75616;SDS011;64200;55.426;37.758;2023-09-19T22:26:22;7.55;;;5.55;;
75616;SDS011;64200;55.426;37.758;2023-09-19T22:31:23;27.15;;;8.23;;
75616;SDS011;64200;55.426;37.758;2023-09-19T22:36:38;7.63;;;5.80;;
75616;SDS011;64200;55.426;37.758;2023-09-19T22:41:42;8.63;;;6.45;;
75616;SDS011;64200;55.426;37.758;2023-09-19T22:46:43;7.83;;;5.00;;
75616;SDS011;64200;55.426;37.758;2023-09-19T22:51:47;8.32;;;5.80;;
75616;SDS011;64200;55.426;37.758;2023-09-19T22:56:51;7.68;;;4.25;;
75616;SDS011;64200;55.426;37.758;2023-09-19T23:01:52;8.02;;;5.90;;
75616;SDS011;64200;55.426;37.758;2023-09-19T23:06:53;7.82;;;5.88;;
75616;SDS011;64200;55.426;37.758;2023-09-19T23:11:58;8.23;;;6.03;;
75616;SDS011;64200;55.426;37.758;2023-09-19T23:17:10;6.57;;;5.03;;
75616;SDS011;64200;55.426;37.758;2023-09-19T23:22:14;8.80;;;5.10;;
75616;SDS011;64200;55.426;37.758;2023-09-19T23:27:18;9.32;;;5.50;;
75616;SDS011;64200;55.426;37.758;2023-09-19T23:32:24;7.45;;;5.40;;
75616;SDS011;64200;55.426;37.758;2023-09-19T23:37:25;9.00;;;5.85;;
75616;SDS011;64200;55.426;37.758;2023-09-19T23:42:25;9.03;;;6.17;;
75616;SDS011;64200;55.426;37.758;2023-09-19T23:47:27;10.55;;;5.80;;
75616;SDS011;64200;55.426;37.758;2023-09-19T23:52:28;10.10;;;5.05;;
75616;SDS011;64200;55.426;37.758;2023-09-19T23:57:28;9.43;;;4.43;;
